Time;durP1;ratioP1;P1;durP2;ratioP2;P2;SDS_P1;SDS_P2;PMS_P1;PMS_P2;Temp;Humidity;BMP_temperature;BMP_pressure;BME280_temperature;BME280_humidity;BME280_pressure;Samples;Min_cycle;Max_cycle;Signal;HPM_P1;HPM_P2
2023/06/23 00:00:20;;;;;;;13.50;12.40;;;18.30;1.00;;;;;;4954853;28;21270;-81
2023/06/23 00:02:47;;;;;;;13.20;12.10;;;18.30;1.00;;;;;;4937807;28;20466;-80
2023/06/23 00:05:14;;;;;;;15.47;13.47;;;18.30;1.00;;;;;;4951315;28;20580;-80
2023/06/23 00:07:42;;;;;;;12.70;11.47;;;18.30;1.00;;;;;;4948836;28;20432;-79
2023/06/23 00:10:10;;;;;;;13.37;12.07;;;18.20;1.00;;;;;;4955670;28;20583;-80
2023/06/23 00:12:41;;;;;;;11.40;10.50;;;18.20;1.00;;;;;;4953552;28;20415;-81
2023/06/23 00:15:12;;;;;;;12.13;11.20;;;18.20;1.00;;;;;;4951231;28;20565;-80
2023/06/23 00:17:41;;;;;;;12.43;11.33;;;18.10;1.00;;;;;;4952743;28;20952;-81
2023/06/23 00:20:12;;;;;;;11.67;10.63;;;18.10;1.00;;;;;;4954770;28;20470;-80
2023/06/23 00:22:41;;;;;;;11.17;10.17;;;18.20;1.00;;;;;;4954635;28;20501;-80
2023/06/23 00:25:10;;;;;;;11.30;10.40;;;18.10;1.00;;;;;;4958217;28;20474;-80
2023/06/23 00:27:37;;;;;;;12.10;10.97;;;18.20;1.00;;;;;;4954414;28;20449;-82
2023/06/23 00:30:06;;;;;;;11.27;10.37;;;18.10;1.00;;;;;;4956269;28;20500;-81
2023/06/23 00:32:35;;;;;;;10.90;9.90;;;18.10;1.00;;;;;;4955619;28;20476;-81
2023/06/23 00:42:47;;;;;;;10.97;10.07;;;18.00;1.00;;;;;;4967758;28;20444;-76
2023/06/23 00:45:15;;;;;;;10.90;10.00;;;18.00;1.00;;;;;;4966418;28;21003;-77
2023/06/23 00:47:45;;;;;;;11.37;10.37;;;17.90;1.00;;;;;;4965977;28;20938;-77
2023/06/23 00:50:15;;;;;;;10.93;9.93;;;17.90;1.00;;;;;;4967507;28;20858;-77
2023/06/23 00:52:49;;;;;;;11.47;10.37;;;18.00;1.00;;;;;;4968460;28;20459;-77
2023/06/23 00:55:20;;;;;;;11.10;10.10;;;18.10;1.00;;;;;;4968127;28;20488;-77
2023/06/23 00:57:47;;;;;;;11.87;10.83;;;18.20;1.00;;;;;;4966633;28;20456;-77
2023/06/23 01:00:18;;;;;;;10.30;9.50;;;18.30;1.00;;;;;;4967352;28;20953;-77
2023/06/23 01:02:49;;;;;;;10.90;10.00;;;18.30;1.00;;;;;;4970470;28;20591;-77
2023/06/23 01:05:17;;;;;;;11.23;10.23;;;18.40;1.00;;;;;;4967618;28;21266;-76
2023/06/23 01:07:57;;;;;;;9.80;9.00;;;18.50;1.00;;;;;;4963956;28;21629;-76
2023/06/23 01:10:32;;;;;;;10.97;9.90;;;18.50;1.00;;;;;;4966360;28;20476;-76
2023/06/23 01:13:06;;;;;;;10.93;10.03;;;18.50;1.00;;;;;;4965538;28;20463;-76
2023/06/23 01:15:36;;;;;;;11.53;10.63;;;18.40;1.00;;;;;;4969364;28;20532;-76
2023/06/23 01:18:10;;;;;;;13.13;11.93;;;18.50;1.00;;;;;;4968300;28;20541;-77
2023/06/23 01:20:41;;;;;;;11.93;10.70;;;18.50;1.00;;;;;;4966457;28;20458;-76
2023/06/23 01:23:49;;;;;;;12.27;11.17;;;18.50;1.00;;;;;;4962871;28;20485;-76
2023/06/23 01:26:38;;;;;;;13.17;12.00;;;18.50;1.00;;;;;;4963400;28;20908;-77
2023/06/23 01:29:09;;;;;;;14.53;12.97;;;18.40;1.00;;;;;;4966268;28;20577;-77
2023/06/23 01:31:44;;;;;;;12.93;11.67;;;18.40;1.00;;;;;;4956832;28;20589;-77
2023/06/23 01:34:21;;;;;;;14.97;12.03;;;18.40;1.00;;;;;;4963953;28;20466;-77
2023/06/23 01:36:55;;;;;;;13.67;12.43;;;18.40;1.00;;;;;;4966039;28;20481;-77
2023/06/23 01:39:24;;;;;;;12.20;11.00;;;18.40;1.00;;;;;;4967303;28;20873;-77
2023/06/23 01:41:56;;;;;;;11.73;10.73;;;18.40;1.00;;;;;;4967299;28;20517;-77
2023/06/23 01:44:26;;;;;;;11.87;10.77;;;18.40;1.00;;;;;;4965632;28;20482;-77
2023/06/23 01:46:57;;;;;;;12.90;11.40;;;18.50;1.00;;;;;;4968891;28;20549;-78
2023/06/23 01:49:28;;;;;;;13.17;11.60;;;18.50;1.00;;;;;;4966636;28;20474;-78
2023/06/23 01:52:00;;;;;;;12.60;11.40;;;18.50;1.00;;;;;;4967843;28;20480;-80
2023/06/23 01:54:28;;;;;;;12.70;11.47;;;18.50;1.00;;;;;;4963729;28;20980;-78
2023/06/23 01:56:56;;;;;;;13.17;12.07;;;18.40;1.00;;;;;;4968513;28;20540;-79
2023/06/23 01:59:28;;;;;;;12.80;11.50;;;18.30;1.00;;;;;;4965540;28;20488;-79
2023/06/23 02:01:57;;;;;;;12.50;11.30;;;18.30;1.00;;;;;;4966849;28;20517;-78
2023/06/23 02:04:24;;;;;;;13.53;12.13;;;18.30;1.00;;;;;;4966001;28;20469;-79
2023/06/23 02:06:52;;;;;;;11.13;10.23;;;18.20;1.00;;;;;;4967668;28;20487;-79
2023/06/23 02:09:23;;;;;;;11.97;10.87;;;18.20;1.00;;;;;;4964822;28;20461;-78
2023/06/23 02:11:54;;;;;;;11.63;10.43;;;18.20;1.00;;;;;;4967883;28;20617;-78
2023/06/23 02:14:23;;;;;;;12.50;11.20;;;18.20;1.00;;;;;;4966413;28;20494;-78
2023/06/23 02:16:53;;;;;;;12.17;10.97;;;18.20;1.00;;;;;;4965223;28;20485;-78
2023/06/23 02:19:22;;;;;;;11.03;10.03;;;18.00;1.00;;;;;;4963147;28;20480;-78
2023/06/23 02:21:50;;;;;;;11.40;10.40;;;18.10;1.00;;;;;;4963099;28;20462;-78
2023/06/23 02:24:18;;;;;;;10.57;9.53;;;18.10;1.00;;;;;;4966699;28;20484;-79
2023/06/23 02:26:48;;;;;;;10.60;9.60;;;18.20;1.00;;;;;;4965654;28;20482;-79
2023/06/23 02:29:16;;;;;;;11.30;10.30;;;18.20;1.00;;;;;;4966667;28;20589;-79
2023/06/23 02:31:46;;;;;;;12.10;10.90;;;18.30;1.00;;;;;;4963844;28;20923;-79
2023/06/23 02:34:15;;;;;;;10.87;9.97;;;18.30;1.00;;;;;;4967158;28;20993;-78
2023/06/23 02:36:46;;;;;;;11.70;10.50;;;18.30;1.00;;;;;;4956075;28;20861;-78
2023/06/23 02:39:18;;;;;;;11.53;10.50;;;18.30;1.00;;;;;;4962451;28;20455;-79
2023/06/23 02:41:52;;;;;;;11.80;10.73;;;18.40;1.00;;;;;;4966053;28;20520;-79
2023/06/23 02:44:25;;;;;;;11.90;10.80;;;18.40;1.00;;;;;;4963816;28;20511;-79
2023/06/23 02:46:58;;;;;;;11.53;10.43;;;18.40;1.00;;;;;;4967219;28;20888;-79
2023/06/23 02:49:30;;;;;;;10.63;9.60;;;18.40;1.00;;;;;;4961535;28;20653;-79
2023/06/23 02:52:00;;;;;;;12.00;10.80;;;18.30;1.00;;;;;;4966442;28;20480;-78
2023/06/23 02:54:33;;;;;;;11.67;10.73;;;18.20;1.00;;;;;;4966434;28;20859;-77
2023/06/23 02:57:01;;;;;;;10.83;9.93;;;18.10;1.00;;;;;;4962674;28;20485;-77
2023/06/23 02:59:31;;;;;;;11.70;10.50;;;18.10;1.00;;;;;;4966708;28;20433;-78
2023/06/23 03:01:59;;;;;;;11.40;10.30;;;18.10;1.00;;;;;;4966913;28;20468;-77
2023/06/23 03:04:30;;;;;;;12.50;11.40;;;18.10;1.00;;;;;;4963208;28;20469;-78
2023/06/23 03:06:57;;;;;;;11.90;10.83;;;18.00;1.00;;;;;;4967046;28;20444;-78
2023/06/23 03:09:25;;;;;;;12.53;11.43;;;18.00;1.00;;;;;;4964526;28;20461;-78
2023/06/23 03:11:52;;;;;;;12.30;11.20;;;18.00;1.00;;;;;;4961380;28;20579;-78
2023/06/23 03:14:19;;;;;;;12.87;11.50;;;18.00;1.00;;;;;;4964078;28;20458;-78
2023/06/23 03:16:49;;;;;;;13.97;12.10;;;17.90;1.00;;;;;;4965254;28;20874;-78
2023/06/23 03:19:27;;;;;;;11.80;10.73;;;17.90;1.00;;;;;;4963718;28;20491;-77
2023/06/23 03:22:03;;;;;;;13.17;11.70;;;17.90;1.00;;;;;;4967483;28;20845;-77
2023/06/23 03:24:33;;;;;;;14.63;12.40;;;17.90;1.00;;;;;;4966249;28;20553;-77
2023/06/23 03:27:05;;;;;;;13.63;12.23;;;17.90;1.00;;;;;;4966373;28;20910;-77
2023/06/23 03:29:34;;;;;;;13.20;11.90;;;17.90;1.00;;;;;;4964630;28;20583;-78
2023/06/23 03:32:05;;;;;;;14.73;13.33;;;17.90;1.00;;;;;;4964951;28;20551;-78
2023/06/23 03:34:39;;;;;;;13.10;11.80;;;17.90;1.00;;;;;;4964670;28;20469;-78
2023/06/23 03:37:11;;;;;;;12.77;11.77;;;18.00;1.00;;;;;;4956761;28;20867;-78
2023/06/23 03:39:43;;;;;;;13.90;12.70;;;18.10;1.00;;;;;;4950802;28;20488;-78
2023/06/23 03:42:12;;;;;;;13.87;12.47;;;18.00;1.00;;;;;;4964946;28;20463;-78
2023/06/23 03:44:42;;;;;;;13.73;12.57;;;18.00;1.00;;;;;;4965009;28;21008;-79
2023/06/23 03:47:15;;;;;;;13.77;12.50;;;18.10;1.00;;;;;;4965226;28;20477;-78
2023/06/23 03:49:49;;;;;;;11.93;11.00;;;18.10;1.00;;;;;;4956012;28;20488;-78
2023/06/23 03:52:18;;;;;;;13.97;12.67;;;18.20;1.00;;;;;;4963543;28;20469;-78
2023/06/23 03:54:49;;;;;;;15.83;14.43;;;18.20;1.00;;;;;;4966440;28;20517;-78
2023/06/23 03:57:19;;;;;;;13.90;12.60;;;18.20;1.00;;;;;;4967264;28;20477;-78
2023/06/23 03:59:49;;;;;;;13.03;11.93;;;18.30;1.00;;;;;;4968600;28;20470;-77
2023/06/23 04:02:20;;;;;;;14.97;13.57;;;18.20;1.00;;;;;;4969089;28;20467;-79
2023/06/23 04:04:49;;;;;;;14.00;12.70;;;18.20;1.00;;;;;;4945190;28;20476;-79
2023/06/23 04:07:19;;;;;;;13.90;12.70;;;18.20;1.00;;;;;;4967166;28;20476;-78
2023/06/23 04:09:49;;;;;;;14.97;13.77;;;18.30;1.00;;;;;;4968638;28;20464;-79
2023/06/23 04:12:19;;;;;;;15.40;14.10;;;18.30;1.00;;;;;;4966439;28;20587;-79
2023/06/23 04:14:49;;;;;;;14.57;13.17;;;18.40;1.00;;;;;;4966217;28;20462;-78
2023/06/23 04:17:17;;;;;;;15.27;14.07;;;18.40;1.00;;;;;;4966849;28;20499;-77
2023/06/23 04:19:49;;;;;;;18.77;17.10;;;18.50;1.00;;;;;;4969818;28;20861;-78
2023/06/23 04:22:20;;;;;;;19.10;17.30;;;18.40;1.00;;;;;;4971532;28;20462;-77
2023/06/23 04:24:48;;;;;;;16.67;15.17;;;18.40;1.00;;;;;;4966480;28;20469;-78
2023/06/23 04:27:18;;;;;;;16.90;15.30;;;18.50;1.00;;;;;;4966196;28;20534;-79
2023/06/23 04:29:47;;;;;;;17.67;15.27;;;18.60;1.00;;;;;;4968115;28;20462;-80
2023/06/23 04:32:16;;;;;;;17.90;16.30;;;18.60;1.00;;;;;;4967464;28;20501;-77
2023/06/23 04:34:43;;;;;;;15.80;14.33;;;18.70;1.00;;;;;;4971612;28;20465;-78
2023/06/23 04:37:19;;;;;;;18.30;16.50;;;18.70;1.00;;;;;;4968589;28;20478;-78
2023/06/23 04:39:52;;;;;;;17.87;16.00;;;18.70;1.00;;;;;;4967804;28;21177;-79
2023/06/23 04:42:26;;;;;;;16.60;15.17;;;18.70;1.00;;;;;;4969589;28;20474;-79
2023/06/23 04:44:57;;;;;;;17.37;15.93;;;18.70;1.00;;;;;;4974973;28;20419;-77
2023/06/23 04:47:30;;;;;;;17.10;15.60;;;18.70;1.00;;;;;;4971731;28;20481;-78
2023/06/23 04:50:01;;;;;;;18.90;17.20;;;18.60;1.00;;;;;;4975270;28;20441;-79
2023/06/23 04:52:32;;;;;;;17.00;15.47;;;18.70;1.00;;;;;;4975280;28;20505;-78
2023/06/23 04:55:06;;;;;;;18.07;16.23;;;18.70;1.00;;;;;;4973908;28;20534;-77
2023/06/23 04:57:37;;;;;;;18.70;16.90;;;18.70;1.00;;;;;;4974503;28;20489;-78
2023/06/23 05:00:11;;;;;;;16.77;15.27;;;18.80;1.00;;;;;;4971659;28;20985;-79
2023/06/23 05:02:42;;;;;;;16.73;15.20;;;18.80;1.00;;;;;;4974525;28;20442;-77
2023/06/23 05:05:11;;;;;;;18.07;16.37;;;18.80;1.00;;;;;;4975773;28;20477;-79
2023/06/23 05:07:41;;;;;;;17.20;15.77;;;18.90;1.00;;;;;;4969653;28;20597;-80
2023/06/23 05:10:10;;;;;;;18.77;17.10;;;18.90;1.00;;;;;;4971160;28;20470;-79
2023/06/23 05:12:40;;;;;;;17.60;16.10;;;19.00;1.00;;;;;;4972648;28;20460;-79
2023/06/23 05:15:10;;;;;;;17.20;15.30;;;19.00;1.00;;;;;;4973205;28;20434;-78
2023/06/23 05:17:40;;;;;;;17.40;15.80;;;19.00;1.00;;;;;;4970289;28;20461;-78
2023/06/23 05:20:11;;;;;;;17.87;16.30;;;19.00;1.00;;;;;;4967004;28;20549;-78
2023/06/23 05:22:42;;;;;;;21.63;19.40;;;19.00;1.00;;;;;;4970992;28;20614;-77
2023/06/23 05:25:14;;;;;;;17.30;15.70;;;19.00;1.00;;;;;;4968633;28;20482;-77
2023/06/23 05:27:45;;;;;;;18.23;16.57;;;19.00;1.00;;;;;;4970618;28;20466;-78
2023/06/23 05:30:21;;;;;;;16.93;15.07;;;19.00;1.00;;;;;;4972700;28;20825;-79
2023/06/23 05:32:50;;;;;;;15.20;13.70;;;19.00;1.00;;;;;;4982258;28;20467;-78
2023/06/23 05:35:18;;;;;;;18.30;16.50;;;18.90;1.00;;;;;;4957782;28;20504;-79
2023/06/23 05:37:49;;;;;;;17.57;15.87;;;19.00;1.00;;;;;;4968731;28;20469;-79
2023/06/23 05:40:19;;;;;;;17.03;15.60;;;19.00;1.00;;;;;;4969877;28;20498;-79
2023/06/23 05:42:47;;;;;;;15.80;14.37;;;19.00;1.00;;;;;;4975357;28;21346;-78
2023/06/23 05:45:15;;;;;;;17.20;15.50;;;19.00;1.00;;;;;;4973118;28;20488;-78
2023/06/23 05:47:49;;;;;;;26.43;24.13;;;19.10;1.00;;;;;;4968789;28;20461;-78
2023/06/23 05:50:22;;;;;;;29.50;27.10;;;19.10;1.00;;;;;;4970780;28;20465;-76
2023/06/23 05:52:59;;;;;;;27.13;24.57;;;19.10;1.00;;;;;;4968672;28;20553;-77
2023/06/23 05:55:30;;;;;;;25.40;23.17;;;19.10;1.00;;;;;;4964188;28;20478;-77
2023/06/23 05:58:02;;;;;;;23.47;21.37;;;19.10;1.00;;;;;;4968295;28;20475;-77
2023/06/23 06:00:35;;;;;;;19.10;17.40;;;19.10;1.00;;;;;;4967748;28;20534;-77
2023/06/23 06:03:07;;;;;;;15.50;14.20;;;19.20;1.00;;;;;;4968936;28;20462;-76
2023/06/23 06:05:37;;;;;;;16.67;14.37;;;19.10;1.00;;;;;;4966409;28;20467;-77
2023/06/23 06:08:07;;;;;;;16.70;15.20;;;19.00;1.00;;;;;;4969071;28;20599;-76
2023/06/23 06:10:37;;;;;;;15.10;13.77;;;18.90;1.00;;;;;;4968031;28;20468;-76
2023/06/23 06:13:05;;;;;;;32.80;30.13;;;18.90;1.00;;;;;;4967820;28;20508;-77
2023/06/23 06:15:35;;;;;;;16.80;15.30;;;18.80;1.00;;;;;;4966085;28;20467;-77
2023/06/23 06:18:06;;;;;;;14.93;13.73;;;18.90;1.00;;;;;;4968911;28;20458;-76
2023/06/23 06:20:36;;;;;;;15.93;14.50;;;18.90;1.00;;;;;;4968384;28;20466;-78
2023/06/23 06:23:06;;;;;;;15.57;14.13;;;18.90;1.00;;;;;;4970044;28;20488;-77
2023/06/23 06:25:36;;;;;;;16.73;15.23;;;18.90;1.00;;;;;;4966689;28;20471;-75
2023/06/23 06:28:08;;;;;;;16.67;15.20;;;19.00;1.00;;;;;;4972673;28;20560;-77
2023/06/23 06:30:39;;;;;;;17.93;16.43;;;19.00;1.00;;;;;;4969292;28;20502;-76
2023/06/23 06:33:07;;;;;;;16.50;15.00;;;19.00;1.00;;;;;;4970483;28;20466;-76
2023/06/23 06:35:37;;;;;;;17.77;15.90;;;19.00;1.00;;;;;;4967965;28;20478;-77
2023/06/23 06:38:06;;;;;;;17.63;15.93;;;19.00;1.00;;;;;;4968827;28;20474;-77
2023/06/23 06:40:35;;;;;;;22.77;20.20;;;19.10;1.00;;;;;;4957050;28;21068;-77
2023/06/23 06:43:03;;;;;;;17.20;15.60;;;19.20;1.00;;;;;;4965832;28;20525;-77
2023/06/23 06:45:31;;;;;;;16.77;15.27;;;19.20;1.00;;;;;;4965324;28;20490;-76
2023/06/23 06:47:59;;;;;;;17.83;16.37;;;19.40;1.00;;;;;;4966472;28;20484;-76
2023/06/23 06:50:27;;;;;;;18.63;16.80;;;19.50;1.00;;;;;;4967466;28;20439;-75
2023/06/23 06:52:55;;;;;;;18.40;16.60;;;19.60;1.00;;;;;;4968457;28;20904;-77
2023/06/23 06:55:24;;;;;;;20.37;18.50;;;19.80;1.00;;;;;;4966196;28;21273;-76
2023/06/23 06:57:52;;;;;;;18.03;16.43;;;19.80;1.00;;;;;;4968647;28;20472;-76
2023/06/23 07:00:21;;;;;;;18.03;16.43;;;19.80;1.00;;;;;;4964900;28;20495;-76
2023/06/23 07:02:49;;;;;;;17.93;16.33;;;19.80;1.00;;;;;;4967578;28;20474;-76
2023/06/23 07:05:16;;;;;;;19.53;17.83;;;19.70;1.00;;;;;;4968198;28;21020;-76
2023/06/23 07:07:44;;;;;;;17.73;16.17;;;19.70;1.00;;;;;;4946731;28;20493;-78
2023/06/23 07:10:13;;;;;;;17.67;16.00;;;19.70;1.00;;;;;;4965928;28;20571;-77
2023/06/23 07:12:42;;;;;;;18.83;17.20;;;19.60;1.00;;;;;;4965905;28;20452;-77
2023/06/23 07:15:10;;;;;;;18.80;17.10;;;19.70;1.00;;;;;;4966713;28;20478;-76
2023/06/23 07:17:37;;;;;;;18.87;17.17;;;19.80;1.00;;;;;;4967266;28;20480;-79
2023/06/23 07:20:05;;;;;;;18.27;16.43;;;19.80;1.00;;;;;;4977926;23;20571;-77
2023/06/23 07:22:33;;;;;;;18.70;17.30;;;19.90;1.00;;;;;;4952602;28;20465;-76
2023/06/23 07:25:00;;;;;;;18.60;16.90;;;19.90;1.00;;;;;;4951776;28;20457;-76
2023/06/23 07:27:27;;;;;;;18.90;17.13;;;20.00;1.00;;;;;;4951693;28;20491;-76
2023/06/23 07:29:55;;;;;;;18.80;17.10;;;20.10;1.00;;;;;;4951693;28;20533;-76
2023/06/23 07:32:22;;;;;;;17.67;16.10;;;20.00;1.00;;;;;;4947833;28;20513;-75
2023/06/23 07:34:49;;;;;;;18.33;16.67;;;20.00;1.00;;;;;;4946277;28;20577;-78
2023/06/23 07:37:16;;;;;;;19.77;18.17;;;20.00;1.00;;;;;;4951541;28;20492;-77
2023/06/23 07:39:44;;;;;;;18.80;17.30;;;19.90;1.00;;;;;;4946255;28;20532;-78
2023/06/23 07:42:11;;;;;;;17.80;16.30;;;19.90;1.00;;;;;;4946366;28;20484;-77
2023/06/23 07:44:38;;;;;;;19.07;17.47;;;19.80;1.00;;;;;;4948194;28;20444;-78
2023/06/23 07:47:07;;;;;;;17.90;16.30;;;19.80;1.00;;;;;;4942060;28;20555;-76
2023/06/23 07:49:34;;;;;;;19.03;17.47;;;19.80;1.00;;;;;;4937535;28;20497;-78
2023/06/23 07:52:04;;;;;;;19.53;17.20;;;19.80;1.00;;;;;;4942919;28;20469;-78
2023/06/23 07:54:31;;;;;;;16.50;15.07;;;19.70;1.00;;;;;;4943040;28;20989;-76
2023/06/23 07:56:59;;;;;;;16.30;15.10;;;19.80;1.00;;;;;;4946197;28;20478;-77
2023/06/23 07:59:26;;;;;;;16.00;14.60;;;19.70;1.00;;;;;;4944442;28;20939;-77
2023/06/23 08:01:53;;;;;;;15.87;14.37;;;19.80;1.00;;;;;;4943955;28;20477;-77
2023/06/23 08:04:22;;;;;;;16.30;14.90;;;19.80;1.00;;;;;;4942393;28;20918;-78
2023/06/23 08:06:49;;;;;;;16.17;14.77;;;19.80;1.00;;;;;;4943042;28;20493;-79
2023/06/23 08:09:16;;;;;;;16.80;15.50;;;19.80;1.00;;;;;;4942491;28;20500;-79
2023/06/23 08:11:44;;;;;;;16.43;15.03;;;19.80;1.00;;;;;;4944089;28;20515;-79
2023/06/23 08:14:11;;;;;;;16.33;14.93;;;19.80;1.00;;;;;;4944559;28;20484;-80
2023/06/23 08:16:39;;;;;;;17.17;15.67;;;19.70;1.00;;;;;;4942874;28;20468;-77
2023/06/23 08:19:06;;;;;;;15.23;13.93;;;19.70;1.00;;;;;;4940945;28;20463;-76
2023/06/23 08:21:35;;;;;;;15.10;13.80;;;19.70;1.00;;;;;;4943842;28;20469;-76
2023/06/23 08:24:02;;;;;;;14.50;13.30;;;19.60;1.00;;;;;;4945726;28;20487;-76
2023/06/23 08:26:29;;;;;;;14.27;12.97;;;19.70;1.00;;;;;;4944290;28;20469;-76
2023/06/23 08:28:56;;;;;;;15.93;14.43;;;19.60;1.00;;;;;;4942921;28;20464;-75
2023/06/23 08:31:23;;;;;;;13.47;12.47;;;19.70;1.00;;;;;;4943566;28;20479;-75
2023/06/23 08:33:50;;;;;;;13.73;12.57;;;19.60;1.00;;;;;;4945317;28;20535;-76
2023/06/23 08:36:17;;;;;;;15.63;14.13;;;19.60;1.00;;;;;;4946867;28;20487;-76
2023/06/23 08:38:45;;;;;;;14.50;13.30;;;19.70;1.00;;;;;;4946600;28;20885;-74
2023/06/23 08:41:13;;;;;;;14.90;13.57;;;19.70;1.00;;;;;;4946965;28;20503;-75
2023/06/23 08:43:45;;;;;;;15.63;14.20;;;19.80;1.00;;;;;;4946157;28;20459;-74
2023/06/23 08:46:14;;;;;;;13.93;12.73;;;19.80;1.00;;;;;;4949925;28;21705;-74
2023/06/23 08:48:46;;;;;;;14.40;13.20;;;19.70;1.00;;;;;;4946239;28;20893;-75
2023/06/23 08:51:15;;;;;;;13.53;12.43;;;19.60;1.00;;;;;;4947013;28;20527;-75
2023/06/23 08:53:45;;;;;;;13.73;12.63;;;19.60;1.00;;;;;;4948453;28;20475;-75
2023/06/23 08:56:13;;;;;;;14.07;12.97;;;19.60;1.00;;;;;;4941258;28;20928;-75
2023/06/23 08:58:40;;;;;;;14.27;13.17;;;19.50;1.00;;;;;;4938053;28;20464;-75
2023/06/23 09:01:07;;;;;;;14.00;12.80;;;19.50;1.00;;;;;;4946248;28;20483;-75
2023/06/23 09:03:36;;;;;;;14.63;13.40;;;19.50;1.00;;;;;;4943249;28;20505;-76
2023/06/23 09:06:03;;;;;;;18.77;17.10;;;19.50;1.00;;;;;;4944380;28;20492;-75
2023/06/23 09:08:31;;;;;;;15.17;13.97;;;19.50;1.00;;;;;;4944730;28;20478;-79
2023/06/23 09:10:59;;;;;;;16.00;14.50;;;19.50;1.00;;;;;;4942848;28;20559;-78
2023/06/23 09:13:30;;;;;;;15.33;14.03;;;19.50;1.00;;;;;;4940106;28;20478;-75
2023/06/23 09:15:57;;;;;;;17.00;15.50;;;19.60;1.00;;;;;;4945151;28;20477;-76
2023/06/23 09:18:25;;;;;;;15.27;13.77;;;19.70;1.00;;;;;;4928527;28;20988;-76
2023/06/23 09:20:53;;;;;;;16.53;14.93;;;19.70;1.00;;;;;;4942417;28;20511;-77
2023/06/23 09:23:22;;;;;;;17.00;15.50;;;19.70;1.00;;;;;;4942263;28;20456;-78
2023/06/23 09:25:50;;;;;;;17.10;15.70;;;19.60;1.00;;;;;;4944163;28;20941;-78
2023/06/23 09:28:29;;;;;;;17.93;16.30;;;19.80;1.00;;;;;;4946669;28;21037;-78
2023/06/23 09:30:58;;;;;;;22.03;20.20;;;19.70;1.00;;;;;;4945557;28;20618;-78
2023/06/23 09:33:27;;;;;;;21.00;19.10;;;19.70;1.00;;;;;;4941653;28;20539;-75
2023/06/23 09:35:55;;;;;;;22.23;20.33;;;19.50;1.00;;;;;;4944013;28;20490;-76
2023/06/23 09:38:24;;;;;;;25.73;23.53;;;19.50;1.00;;;;;;4945184;28;20545;-77
2023/06/23 09:41:03;;;;;;;25.33;23.10;;;19.50;1.00;;;;;;4946185;28;20852;-77
2023/06/23 09:43:39;;;;;;;26.03;23.73;;;19.50;1.00;;;;;;4944189;28;20527;-78
2023/06/23 09:46:07;;;;;;;28.53;26.13;;;19.50;1.00;;;;;;4949002;28;20574;-76
2023/06/23 09:48:34;;;;;;;27.57;25.17;;;19.50;1.00;;;;;;4942494;28;20464;-77
2023/06/23 09:51:02;;;;;;;29.73;27.03;;;19.40;1.00;;;;;;4943912;28;21500;-76
2023/06/23 09:53:33;;;;;;;30.03;27.53;;;19.30;1.00;;;;;;4942668;28;20464;-76
2023/06/23 09:56:01;;;;;;;29.17;26.57;;;19.30;1.00;;;;;;4943530;28;20973;-77
2023/06/23 09:58:37;;;;;;;28.23;25.83;;;19.30;1.00;;;;;;4944178;28;20466;-76
2023/06/23 10:01:07;;;;;;;30.07;27.43;;;19.30;1.00;;;;;;4946332;28;20558;-76
2023/06/23 10:03:43;;;;;;;28.50;26.00;;;19.20;1.00;;;;;;4940348;28;20568;-77
2023/06/23 10:06:20;;;;;;;30.87;28.07;;;19.20;1.00;;;;;;4944608;28;20507;-77
2023/06/23 10:08:47;;;;;;;28.97;26.50;;;19.20;1.00;;;;;;4947094;28;20466;-76
2023/06/23 10:11:18;;;;;;;29.70;27.27;;;19.20;1.00;;;;;;4948038;28;20905;-76
2023/06/23 10:13:47;;;;;;;28.10;25.63;;;19.30;1.00;;;;;;4945800;28;20474;-76
2023/06/23 10:16:14;;;;;;;30.13;27.43;;;19.30;1.00;;;;;;4945939;28;20487;-76
2023/06/23 10:18:42;;;;;;;27.07;24.57;;;19.30;1.00;;;;;;4945285;28;20467;-76
2023/06/23 10:21:09;;;;;;;23.90;21.80;;;19.40;1.00;;;;;;4945102;28;20476;-75
2023/06/23 10:23:36;;;;;;;23.63;21.53;;;19.40;1.00;;;;;;4946186;28;20562;-76
2023/06/23 10:26:04;;;;;;;23.77;21.43;;;19.40;1.00;;;;;;4945394;28;20482;-78
2023/06/23 10:28:31;;;;;;;22.73;20.73;;;19.40;1.00;;;;;;4943498;28;20566;-76
2023/06/23 10:31:03;;;;;;;21.40;19.53;;;19.50;1.00;;;;;;4946302;28;20484;-77
2023/06/23 10:33:34;;;;;;;18.60;17.00;;;19.50;1.00;;;;;;4948377;28;20532;-77
2023/06/23 10:36:03;;;;;;;18.20;16.53;;;19.50;1.00;;;;;;4943543;28;20510;-75
2023/06/23 10:38:32;;;;;;;16.80;15.00;;;19.50;1.00;;;;;;4938546;28;20458;-76
2023/06/23 10:41:01;;;;;;;15.70;14.43;;;19.50;1.00;;;;;;4944960;28;20626;-76
2023/06/23 10:43:32;;;;;;;17.93;16.27;;;19.40;1.00;;;;;;4945390;28;20543;-74
2023/06/23 10:46:04;;;;;;;14.30;13.10;;;19.40;1.00;;;;;;4945697;28;22669;-78
2023/06/23 10:48:32;;;;;;;16.53;15.03;;;19.30;1.00;;;;;;4930663;28;21154;-77
2023/06/23 10:50:59;;;;;;;15.00;13.80;;;19.30;1.00;;;;;;4945614;28;20565;-77
2023/06/23 10:53:28;;;;;;;16.10;14.80;;;19.20;1.00;;;;;;4944620;28;20890;-76
2023/06/23 10:55:56;;;;;;;16.57;15.07;;;19.20;1.00;;;;;;4941525;28;20500;-76
2023/06/23 10:58:23;;;;;;;14.40;13.10;;;19.20;1.00;;;;;;4941422;28;20527;-76
2023/06/23 11:01:00;;;;;;;14.27;12.80;;;19.20;1.00;;;;;;4940484;28;20542;-78
2023/06/23 11:03:33;;;;;;;14.07;12.87;;;19.20;1.00;;;;;;4945378;28;20470;-78
2023/06/23 11:06:01;;;;;;;13.87;12.67;;;19.20;1.00;;;;;;4944446;28;20973;-77
2023/06/23 11:08:31;;;;;;;13.70;12.50;;;19.20;1.00;;;;;;4943552;28;20475;-78
2023/06/23 11:11:00;;;;;;;13.87;12.47;;;19.20;1.00;;;;;;4944897;28;20856;-78
2023/06/23 11:13:41;;;;;;;14.73;13.37;;;19.20;1.00;;;;;;4943908;28;20455;-80
2023/06/23 11:16:13;;;;;;;14.40;12.87;;;19.30;1.00;;;;;;4944641;28;20468;-78
2023/06/23 11:18:52;;;;;;;13.67;12.30;;;19.30;1.00;;;;;;4940926;28;20569;-79
2023/06/23 11:21:21;;;;;;;13.23;12.07;;;19.40;1.00;;;;;;4945069;28;20460;-78
2023/06/23 11:24:10;;;;;;;13.93;12.50;;;19.40;1.00;;;;;;4946716;28;20456;-78
2023/06/23 11:26:38;;;;;;;14.23;12.73;;;19.40;1.00;;;;;;4942800;28;20520;-78
2023/06/23 11:29:12;;;;;;;12.83;11.73;;;19.50;1.00;;;;;;4939800;28;20886;-76
2023/06/23 11:32:07;;;;;;;13.40;12.30;;;19.50;1.00;;;;;;4942872;28;20874;-77
2023/06/23 11:34:53;;;;;;;13.03;11.77;;;19.60;1.00;;;;;;4943049;28;20461;-75
2023/06/23 11:37:21;;;;;;;12.63;11.50;;;19.60;1.00;;;;;;4942060;28;20487;-78
2023/06/23 11:39:48;;;;;;;13.57;12.37;;;19.60;1.00;;;;;;4948635;28;20470;-77
2023/06/23 11:42:15;;;;;;;13.23;12.07;;;19.60;1.00;;;;;;4948150;28;20493;-77
2023/06/23 11:44:42;;;;;;;13.23;11.87;;;19.60;1.00;;;;;;4947152;28;20518;-76
2023/06/23 11:47:09;;;;;;;14.03;12.57;;;19.60;1.00;;;;;;4951287;28;20477;-77
2023/06/23 11:49:37;;;;;;;12.57;11.37;;;19.70;1.00;;;;;;4946446;28;20558;-77
2023/06/23 11:52:06;;;;;;;11.77;10.77;;;19.70;1.00;;;;;;4948120;28;20466;-77
2023/06/23 11:54:35;;;;;;;12.57;11.27;;;19.70;1.00;;;;;;4950114;28;20482;-78
2023/06/23 11:57:03;;;;;;;11.10;10.10;;;19.50;1.00;;;;;;4948100;28;20490;-77
2023/06/23 11:59:35;;;;;;;12.43;11.30;;;19.40;1.00;;;;;;4946196;28;20955;-77
2023/06/23 12:02:05;;;;;;;12.33;11.23;;;19.40;1.00;;;;;;4952062;28;20470;-78
2023/06/23 12:04:32;;;;;;;13.23;12.03;;;19.40;1.00;;;;;;4948262;28;20460;-79
2023/06/23 12:07:00;;;;;;;13.60;11.00;;;19.40;1.00;;;;;;4949061;28;20480;-79
2023/06/23 12:09:29;;;;;;;13.63;10.67;;;19.30;1.00;;;;;;4947667;28;20468;-78
2023/06/23 12:11:57;;;;;;;12.00;10.80;;;19.30;1.00;;;;;;4948775;28;20919;-78
2023/06/23 12:14:31;;;;;;;11.80;10.80;;;19.30;1.00;;;;;;4951667;28;20496;-78
2023/06/23 12:17:07;;;;;;;11.83;10.50;;;19.30;1.00;;;;;;4951246;28;20986;-79
2023/06/23 12:19:34;;;;;;;13.13;11.93;;;19.20;1.00;;;;;;4953646;28;21309;-78
2023/06/23 12:22:02;;;;;;;13.70;12.50;;;19.20;1.00;;;;;;4950690;28;20463;-78
2023/06/23 12:24:33;;;;;;;14.50;13.07;;;19.30;1.00;;;;;;4952637;28;20474;-79
2023/06/23 12:27:00;;;;;;;15.20;13.70;;;19.30;1.00;;;;;;4952706;28;20567;-79
2023/06/23 12:29:30;;;;;;;13.80;12.40;;;19.40;1.00;;;;;;4952679;28;20473;-78
2023/06/23 12:31:59;;;;;;;14.27;13.07;;;19.40;1.00;;;;;;4952196;28;20468;-77
2023/06/23 12:34:34;;;;;;;15.77;13.87;;;19.50;1.00;;;;;;4957078;28;20467;-77
2023/06/23 12:37:06;;;;;;;14.80;13.40;;;19.50;1.00;;;;;;4953896;28;20463;-77
2023/06/23 12:39:35;;;;;;;15.90;14.50;;;19.60;1.00;;;;;;4951715;28;20468;-79
2023/06/23 12:42:03;;;;;;;15.60;14.13;;;19.60;1.00;;;;;;4955064;28;20504;-78
2023/06/23 12:44:35;;;;;;;15.10;13.70;;;19.50;1.00;;;;;;4952179;28;20472;-77
2023/06/23 12:47:04;;;;;;;14.97;13.43;;;19.50;1.00;;;;;;4950483;28;20489;-78
2023/06/23 12:49:32;;;;;;;18.37;16.57;;;19.50;1.00;;;;;;4953850;28;20466;-78
2023/06/23 12:52:00;;;;;;;16.23;14.50;;;19.50;1.00;;;;;;4953055;28;20472;-79
2023/06/23 12:54:27;;;;;;;14.67;13.20;;;19.40;1.00;;;;;;4952171;28;20468;-79
2023/06/23 12:57:01;;;;;;;13.73;12.33;;;19.30;1.00;;;;;;4935966;28;20488;-78
2023/06/23 12:59:29;;;;;;;16.33;12.90;;;19.20;1.00;;;;;;4950860;28;20571;-78